Rixford, Pennsylvania
Current Conditions -  °F | °C
As of 11:44 PM on Sunday 25 Jan 2015 (Local Time) from KBFD Reporting Station
Light Snow Light Snow  
Wind Chill:   Ceiling: 2800
Heat Index: 15°   Visibility: 2.5mi
Dew Point:   Wind: 8mph
Humidity: 64%   Direction: 70°ENE
Pressure: 29.83"   Gusts: NA
Location:  41.93°N, 78.49°W
Report Text: KBFD 260444Z AUTO 07007KT 2 1/2SM -SN OVC028 M09/M15 A2983 RMK AO2 SNB28 P0000 T10941150
Loading
Personal Weather Stations






























Interactive Weather Map New forecast layout! Learn more

10-Day Weather Forecast

Advertisements
Track Severe Weather on mobile